Time;durP1;ratioP1;P1;durP2;ratioP2;P2;SDS_P1;SDS_P2;PMS_P1;PMS_P2;Temp;Humidity;BMP_temperature;BMP_pressure;BME280_temperature;BME280_humidity;BME280_pressure;Samples;Min_cycle;Max_cycle;Signal;HPM_P1;HPM_P2
2022/12/30 00:02:10;;;;;;;12.57;2.20;;;8.00;99.90;;;;;;4960749;28;20022;-84
2022/12/30 00:04:36;;;;;;;16.48;2.30;;;8.00;99.90;;;;;;4977684;28;20043;-85
2022/12/30 00:07:02;;;;;;;11.15;2.47;;;8.00;99.90;;;;;;4976203;28;20031;-85
2022/12/30 00:09:27;;;;;;;10.40;2.22;;;7.90;99.90;;;;;;4976573;28;20027;-85
2022/12/30 00:11:53;;;;;;;11.90;2.17;;;7.90;99.90;;;;;;4979331;28;20121;-84
2022/12/30 00:33:56;;;;;;;15.95;3.03;;;7.80;99.90;;;;;;5016006;28;20045;-84
2022/12/30 00:36:23;;;;;;;20.63;2.40;;;7.80;99.90;;;;;;4997846;28;20455;-84
2022/12/30 00:38:49;;;;;;;9.63;2.20;;;7.70;99.90;;;;;;4979495;28;20038;-84
2022/12/30 00:43:59;;;;;;;11.95;2.70;;;7.70;99.90;;;;;;4981800;28;20116;-84
2022/12/30 00:46:25;;;;;;;11.32;2.15;;;7.70;99.90;;;;;;4979464;28;20462;-84
2022/12/30 00:57:04;;;;;;;10.52;1.98;;;7.70;99.90;;;;;;4981674;28;20049;-85
2022/12/30 00:59:32;;;;;;;8.20;1.90;;;7.60;99.90;;;;;;4975987;28;20118;-84
2022/12/30 01:01:58;;;;;;;12.57;3.05;;;7.60;99.90;;;;;;4977357;28;20030;-84
2022/12/30 01:04:24;;;;;;;13.93;2.22;;;7.60;99.90;;;;;;4994950;28;20122;-84
2022/12/30 01:06:49;;;;;;;13.40;2.35;;;7.60;99.90;;;;;;4994463;28;20085;-86
2022/12/30 01:09:15;;;;;;;13.23;2.30;;;7.50;99.90;;;;;;4978581;28;20351;-84
2022/12/30 01:11:41;;;;;;;14.50;2.05;;;7.50;99.90;;;;;;4975255;28;20383;-84
2022/12/30 01:14:06;;;;;;;12.57;2.50;;;7.50;99.90;;;;;;4994639;28;20030;-84
2022/12/30 01:16:32;;;;;;;15.18;2.53;;;7.50;99.90;;;;;;4995054;28;20030;-85
2022/12/30 01:18:58;;;;;;;9.32;1.98;;;7.50;99.90;;;;;;4995194;28;20027;-85
2022/12/30 01:21:23;;;;;;;11.82;2.30;;;7.50;99.90;;;;;;4962689;28;20026;-85
2022/12/30 01:23:49;;;;;;;15.95;2.15;;;7.50;99.90;;;;;;4978672;28;20038;-85
2022/12/30 01:26:15;;;;;;;11.98;2.35;;;7.50;99.90;;;;;;4962702;28;20038;-85
2022/12/30 01:28:40;;;;;;;11.88;2.47;;;7.50;99.90;;;;;;4979440;28;20031;-84
2022/12/30 01:31:09;;;;;;;11.00;2.13;;;7.50;99.90;;;;;;4962992;28;20410;-85
2022/12/30 01:33:36;;;;;;;13.73;2.30;;;7.50;99.90;;;;;;4978878;28;20038;-84
2022/12/30 01:36:03;;;;;;;10.90;2.40;;;7.40;99.90;;;;;;4979820;28;20034;-85
2022/12/30 01:38:33;;;;;;;14.82;3.17;;;7.50;99.90;;;;;;5010599;28;20049;-84
2022/12/30 01:40:59;;;;;;;11.38;1.85;;;7.40;99.90;;;;;;5015202;28;20041;-86
2022/12/30 01:43:41;;;;;;;11.20;1.88;;;7.40;99.90;;;;;;5019334;28;20022;-85
2022/12/30 01:46:07;;;;;;;8.20;1.85;;;7.40;99.90;;;;;;5018847;28;20006;-84
2022/12/30 01:48:35;;;;;;;9.63;2.08;;;7.40;99.90;;;;;;4997284;28;20034;-85
2022/12/30 01:51:05;;;;;;;13.95;2.80;;;7.40;99.90;;;;;;5016642;28;20037;-87
2022/12/30 01:53:51;;;;;;;10.43;2.33;;;7.40;99.90;;;;;;5018176;28;20027;-85
2022/12/30 01:56:39;;;;;;;13.85;2.15;;;7.40;99.90;;;;;;4998730;28;20053;-84
2022/12/30 01:59:05;;;;;;;14.82;3.70;;;7.40;99.90;;;;;;4977742;28;20038;-84
2022/12/30 02:01:33;;;;;;;10.77;2.05;;;7.30;99.90;;;;;;4975377;28;20030;-84
2022/12/30 02:04:04;;;;;;;9.55;2.00;;;7.30;99.90;;;;;;4978772;28;20031;-85
2022/12/30 02:06:39;;;;;;;13.57;2.13;;;7.30;99.90;;;;;;4994657;28;20066;-84
2022/12/30 02:09:05;;;;;;;11.65;2.10;;;7.30;99.90;;;;;;4977868;28;20027;-85
2022/12/30 02:11:33;;;;;;;8.43;2.17;;;7.20;99.90;;;;;;4978243;28;20042;-85
2022/12/30 02:13:59;;;;;;;12.80;2.67;;;7.20;99.90;;;;;;4976420;28;20093;-85
2022/12/30 02:16:52;;;;;;;13.90;2.65;;;7.20;99.90;;;;;;4961848;28;20031;-84
2022/12/30 02:19:52;;;;;;;11.60;2.22;;;7.20;99.90;;;;;;4993160;28;20438;-84
2022/12/30 02:22:36;;;;;;;11.15;2.38;;;7.10;99.90;;;;;;4974653;28;20027;-84
2022/12/30 02:25:32;;;;;;;15.85;2.03;;;7.10;99.90;;;;;;4993718;28;20034;-85
2022/12/30 02:28:13;;;;;;;10.05;2.70;;;7.10;99.90;;;;;;4993758;28;20030;-86
2022/12/30 02:31:06;;;;;;;13.50;2.42;;;7.10;99.90;;;;;;4974408;28;20066;-84
2022/12/30 02:34:01;;;;;;;16.95;3.17;;;7.00;99.90;;;;;;4978196;28;20462;-85
2022/12/30 02:36:51;;;;;;;9.40;2.60;;;7.00;99.90;;;;;;4991276;28;20078;-84
2022/12/30 02:40:04;;;;;;;19.13;2.75;;;7.00;99.90;;;;;;4988123;28;20101;-85
2022/12/30 02:46:10;;;;;;;11.20;2.60;;;7.00;99.90;;;;;;4991218;28;20097;-83
2022/12/30 02:48:38;;;;;;;17.67;3.03;;;7.00;99.90;;;;;;4991498;28;20030;-84
2022/12/30 02:53:49;;;;;;;13.27;3.20;;;7.00;99.90;;;;;;4995138;28;20450;-84
2022/12/30 02:56:15;;;;;;;13.23;2.47;;;6.90;99.90;;;;;;4995606;28;20030;-84
2022/12/30 02:58:50;;;;;;;13.57;2.58;;;7.00;99.90;;;;;;4997434;28;20015;-83
2022/12/30 03:05:00;;;;;;;30.60;4.13;;;7.00;99.90;;;;;;4998926;28;20076;-84
2022/12/30 03:07:29;;;;;;;;;;;7.00;99.90;;;;;;4993226;28;20034;-83
2022/12/30 03:13:17;;;;;;;14.10;2.55;;;6.90;99.90;;;;;;4994616;28;20411;-85
2022/12/30 03:16:03;;;;;;;21.52;3.72;;;7.00;99.90;;;;;;4974221;28;20037;-84
2022/12/30 03:18:29;;;;;;;16.42;2.38;;;7.00;99.90;;;;;;4978701;28;20121;-84
2022/12/30 03:20:55;;;;;;;16.90;2.60;;;6.90;99.90;;;;;;4996373;28;20030;-83
2022/12/30 03:28:53;;;;;;;11.48;2.35;;;7.00;99.90;;;;;;4994769;28;20485;-85
2022/12/30 03:31:20;;;;;;;21.05;4.68;;;6.90;99.90;;;;;;4995841;28;20014;-84
2022/12/30 03:33:46;;;;;;;12.63;2.50;;;6.90;99.90;;;;;;4976951;28;20114;-84
2022/12/30 03:36:19;;;;;;;14.73;3.05;;;6.90;99.90;;;;;;4996225;28;20054;-85
2022/12/30 03:38:59;;;;;;;14.02;2.88;;;6.90;99.90;;;;;;4996950;28;20093;-85
2022/12/30 03:41:25;;;;;;;11.35;2.47;;;6.90;99.90;;;;;;4996308;28;20076;-84
2022/12/30 03:43:54;;;;;;;16.25;2.90;;;6.90;99.90;;;;;;4996446;28;20046;-84
2022/12/30 03:46:20;;;;;;;14.07;2.50;;;6.80;99.90;;;;;;4980594;28;20375;-85
2022/12/30 03:48:46;;;;;;;13.88;2.17;;;6.80;99.90;;;;;;4996698;28;20030;-84
2022/12/30 03:51:11;;;;;;;16.17;2.50;;;6.80;99.90;;;;;;4996520;28;20037;-85
2022/12/30 03:53:37;;;;;;;17.85;2.92;;;6.90;99.90;;;;;;4980575;28;20037;-84
2022/12/30 03:56:03;;;;;;;12.52;2.65;;;6.80;99.90;;;;;;4980175;28;20411;-84
2022/12/30 03:58:29;;;;;;;13.00;2.60;;;6.80;99.90;;;;;;4979996;28;20033;-84
2022/12/30 04:00:54;;;;;;;15.65;2.67;;;6.70;99.90;;;;;;4964065;28;20030;-84
2022/12/30 04:03:20;;;;;;;16.80;3.20;;;6.70;99.90;;;;;;4996155;28;20418;-84
2022/12/30 04:05:45;;;;;;;13.73;3.35;;;6.60;99.90;;;;;;4964351;28;20066;-84
2022/12/30 04:08:11;;;;;;;29.52;4.65;;;6.50;99.90;;;;;;4964125;28;20077;-83
2022/12/30 04:10:37;;;;;;;15.20;2.60;;;6.50;99.90;;;;;;4964312;28;20069;-84
2022/12/30 04:13:02;;;;;;;12.52;2.55;;;6.40;99.90;;;;;;4978569;28;20051;-84
2022/12/30 04:15:28;;;;;;;13.55;2.70;;;6.30;99.90;;;;;;4979430;28;20023;-84
2022/12/30 04:17:54;;;;;;;20.40;2.58;;;6.30;99.90;;;;;;4980016;28;20446;-84
2022/12/30 04:20:19;;;;;;;13.10;2.15;;;6.20;99.90;;;;;;4979667;28;20437;-84
2022/12/30 04:22:45;;;;;;;14.15;3.55;;;6.20;99.90;;;;;;4980171;28;20038;-84
2022/12/30 04:25:11;;;;;;;13.20;2.70;;;6.20;99.90;;;;;;4976393;28;20027;-84
2022/12/30 04:27:36;;;;;;;19.45;2.95;;;6.10;99.90;;;;;;4976304;28;20027;-84
2022/12/30 04:30:02;;;;;;;21.50;2.83;;;6.10;99.90;;;;;;4978963;28;20070;-84
2022/12/30 04:32:28;;;;;;;16.63;3.83;;;6.10;99.90;;;;;;4979521;28;20050;-84
2022/12/30 04:34:53;;;;;;;15.60;3.05;;;6.10;99.90;;;;;;4977347;28;20431;-84
2022/12/30 04:37:19;;;;;;;14.23;2.60;;;6.10;99.90;;;;;;4995389;28;20026;-85
2022/12/30 04:39:45;;;;;;;16.40;3.05;;;6.10;99.90;;;;;;4996879;28;20482;-84
2022/12/30 04:42:10;;;;;;;17.23;2.85;;;6.10;99.90;;;;;;4954696;28;20034;-84
2022/12/30 04:44:36;;;;;;;15.25;2.30;;;6.10;99.90;;;;;;5007209;28;20042;-84
2022/12/30 04:47:01;;;;;;;13.90;3.20;;;6.00;99.90;;;;;;4994342;28;20019;-85
2022/12/30 04:49:27;;;;;;;15.43;3.28;;;6.00;99.90;;;;;;4995291;28;20117;-84
2022/12/30 04:51:53;;;;;;;23.30;2.45;;;6.00;99.90;;;;;;4976864;28;20062;-85
2022/12/30 04:54:18;;;;;;;13.70;2.75;;;6.00;99.90;;;;;;4979448;28;20382;-85
2022/12/30 04:56:44;;;;;;;17.38;3.83;;;6.00;99.90;;;;;;4979431;28;20034;-84
2022/12/30 04:59:10;;;;;;;15.98;3.47;;;6.00;99.90;;;;;;4979146;28;20027;-84
2022/12/30 05:01:35;;;;;;;18.67;3.30;;;6.00;99.90;;;;;;4996539;28;20034;-84
2022/12/30 05:04:01;;;;;;;15.80;3.35;;;6.00;99.90;;;;;;4979700;28;20437;-84
2022/12/30 05:06:27;;;;;;;17.50;2.58;;;6.10;99.90;;;;;;4996526;28;20026;-85
2022/12/30 05:08:52;;;;;;;14.93;2.58;;;6.10;99.90;;;;;;4979179;28;20022;-85
2022/12/30 05:11:18;;;;;;;16.75;2.83;;;6.10;99.90;;;;;;4995190;28;20038;-84
2022/12/30 05:13:43;;;;;;;12.10;2.50;;;6.10;99.90;;;;;;4962430;28;20089;-85
2022/12/30 05:16:09;;;;;;;14.75;3.10;;;6.10;99.90;;;;;;4963580;28;20138;-85
2022/12/30 05:18:35;;;;;;;14.85;2.60;;;6.10;99.90;;;;;;4980756;28;20038;-85
2022/12/30 05:21:00;;;;;;;14.27;2.70;;;6.10;99.90;;;;;;4976291;28;20053;-84
2022/12/30 05:26:15;;;;;;;15.20;3.72;;;6.00;99.90;;;;;;5005361;28;20025;-83
2022/12/30 05:28:45;;;;;;;16.13;2.78;;;6.00;99.90;;;;;;5002851;28;20019;-85
2022/12/30 05:31:12;;;;;;;14.95;3.53;;;6.00;99.90;;;;;;5018660;28;20037;-85
2022/12/30 05:33:38;;;;;;;12.50;2.60;;;6.00;99.90;;;;;;5018255;28;20090;-85
2022/12/30 05:36:04;;;;;;;11.77;2.42;;;6.00;99.90;;;;;;5001884;28;20026;-85
2022/12/30 05:38:30;;;;;;;17.48;4.55;;;5.90;99.90;;;;;;4999481;28;20018;-83
2022/12/30 05:40:56;;;;;;;14.75;3.58;;;5.90;99.90;;;;;;4997330;28;20355;-83
2022/12/30 05:43:21;;;;;;;13.80;2.50;;;5.90;99.90;;;;;;4994988;28;20092;-84
2022/12/30 05:45:47;;;;;;;15.85;2.67;;;5.90;99.90;;;;;;4975531;28;20046;-83
2022/12/30 05:48:13;;;;;;;24.27;3.75;;;5.90;99.90;;;;;;4962862;28;20463;-83
2022/12/30 05:50:39;;;;;;;14.77;3.92;;;5.90;99.90;;;;;;4978380;28;20037;-83
2022/12/30 05:53:05;;;;;;;17.60;3.15;;;5.90;99.90;;;;;;4978100;28;20045;-84
2022/12/30 05:55:30;;;;;;;12.93;2.65;;;5.80;99.90;;;;;;4977145;28;20030;-83
2022/12/30 05:57:56;;;;;;;19.33;3.63;;;5.90;99.90;;;;;;4977957;28;20081;-83
2022/12/30 06:00:22;;;;;;;14.05;2.50;;;5.80;99.90;;;;;;4961731;28;20030;-83
2022/12/30 06:02:47;;;;;;;17.75;3.60;;;5.90;99.90;;;;;;4993989;28;20029;-83
2022/12/30 06:05:13;;;;;;;18.33;2.42;;;5.90;99.90;;;;;;4994998;28;20426;-84
2022/12/30 06:07:39;;;;;;;13.98;2.33;;;5.90;99.90;;;;;;4974284;28;20379;-83
2022/12/30 06:10:05;;;;;;;12.98;3.28;;;5.90;99.90;;;;;;4993672;28;20116;-83
2022/12/30 06:12:31;;;;;;;14.65;2.83;;;5.90;99.90;;;;;;4977185;28;20026;-83
2022/12/30 06:14:56;;;;;;;14.10;2.95;;;6.00;99.90;;;;;;4977958;28;20398;-83
2022/12/30 06:17:22;;;;;;;12.15;2.72;;;6.00;99.90;;;;;;4974173;28;20027;-83
2022/12/30 06:19:48;;;;;;;14.50;2.92;;;6.00;99.90;;;;;;4993712;28;20053;-82
2022/12/30 06:22:13;;;;;;;15.73;2.53;;;6.00;99.90;;;;;;4977973;28;20037;-83
2022/12/30 06:24:39;;;;;;;15.00;2.83;;;5.90;99.90;;;;;;4977539;28;20038;-82
2022/12/30 06:27:05;;;;;;;16.33;2.80;;;5.90;99.90;;;;;;4994710;28;20034;-83
2022/12/30 06:29:30;;;;;;;15.20;3.53;;;5.90;99.90;;;;;;4977474;28;20026;-83
2022/12/30 06:31:56;;;;;;;16.23;3.70;;;5.90;99.90;;;;;;4977125;28;20018;-83
2022/12/30 06:34:21;;;;;;;15.23;3.15;;;5.90;99.90;;;;;;4977452;28;20590;-82
2022/12/30 06:36:47;;;;;;;19.13;3.38;;;5.90;99.90;;;;;;4974349;28;20522;-82
2022/12/30 06:39:13;;;;;;;20.02;3.75;;;5.90;99.90;;;;;;4977402;28;20030;-83
2022/12/30 06:41:38;;;;;;;17.10;3.28;;;5.90;99.90;;;;;;4967787;28;20089;-82
2022/12/30 06:44:04;;;;;;;16.88;3.08;;;5.90;99.90;;;;;;4998485;28;20037;-82
2022/12/30 06:46:30;;;;;;;17.67;3.25;;;5.80;99.90;;;;;;4994088;28;20034;-85
2022/12/30 06:48:56;;;;;;;20.08;4.15;;;5.80;99.90;;;;;;4978177;28;20058;-82
2022/12/30 06:51:21;;;;;;;22.58;3.63;;;5.80;99.90;;;;;;4993221;28;20033;-82
2022/12/30 06:53:47;;;;;;;17.88;2.85;;;5.80;99.90;;;;;;4977191;28;20038;-83
2022/12/30 06:56:13;;;;;;;20.70;3.05;;;5.80;99.90;;;;;;4977223;28;20034;-83
2022/12/30 06:58:38;;;;;;;14.18;3.05;;;5.80;99.90;;;;;;4993480;28;20026;-84
2022/12/30 07:01:04;;;;;;;13.93;3.05;;;5.80;99.90;;;;;;4993952;28;20104;-84
2022/12/30 07:03:30;;;;;;;18.23;3.50;;;5.80;99.90;;;;;;4977385;28;20031;-84
2022/12/30 07:05:55;;;;;;;16.33;3.15;;;5.80;99.90;;;;;;4979718;28;20031;-85
2022/12/30 07:08:21;;;;;;;18.17;3.67;;;5.80;99.90;;;;;;4981138;28;20034;-84
2022/12/30 07:10:47;;;;;;;13.35;3.05;;;5.80;99.90;;;;;;4998748;28;20022;-84
2022/12/30 07:13:15;;;;;;;11.52;3.08;;;5.80;99.90;;;;;;4964675;28;20101;-83
2022/12/30 07:15:41;;;;;;;18.58;3.05;;;5.80;99.90;;;;;;4981542;28;20514;-82
2022/12/30 07:18:08;;;;;;;16.73;4.65;;;5.80;99.90;;;;;;4980645;28;20034;-83
2022/12/30 07:20:33;;;;;;;12.00;2.92;;;5.80;99.90;;;;;;4997019;28;20077;-84
2022/12/30 07:22:59;;;;;;;17.85;4.15;;;5.90;99.90;;;;;;4980559;28;20376;-83
2022/12/30 07:25:25;;;;;;;12.77;3.28;;;5.90;99.90;;;;;;4980571;28;20524;-83
2022/12/30 07:28:00;;;;;;;12.90;3.20;;;5.90;99.90;;;;;;4964295;28;20521;-83
2022/12/30 07:30:26;;;;;;;12.85;2.92;;;5.90;99.90;;;;;;4996785;28;20027;-82
2022/12/30 07:32:52;;;;;;;11.10;2.45;;;5.90;99.90;;;;;;4980701;28;20459;-84
2022/12/30 07:35:17;;;;;;;14.00;3.15;;;6.00;99.90;;;;;;4980213;28;20034;-84
2022/12/30 07:37:43;;;;;;;12.68;3.25;;;6.00;99.90;;;;;;4999200;28;20076;-85
2022/12/30 07:40:09;;;;;;;12.07;2.65;;;6.10;99.90;;;;;;4984188;28;20386;-82
2022/12/30 07:42:35;;;;;;;16.63;3.10;;;6.10;99.90;;;;;;5006762;28;20073;-83
2022/12/30 07:45:01;;;;;;;12.05;3.50;;;6.10;99.90;;;;;;4979956;28;20475;-82
2022/12/30 07:47:31;;;;;;;18.73;2.42;;;6.20;99.90;;;;;;4964422;28;20023;-84
2022/12/30 07:49:57;;;;;;;15.73;2.85;;;6.20;99.90;;;;;;4980693;28;20023;-84
2022/12/30 07:52:22;;;;;;;12.23;2.70;;;6.20;99.90;;;;;;5016659;28;20037;-83
2022/12/30 07:54:48;;;;;;;13.55;3.03;;;6.30;99.90;;;;;;4984352;28;20029;-84
2022/12/30 07:57:14;;;;;;;10.65;2.80;;;6.20;99.90;;;;;;4978213;28;20022;-84
2022/12/30 07:59:39;;;;;;;14.15;2.78;;;6.20;99.90;;;;;;4963716;28;20031;-91
2022/12/30 08:02:05;;;;;;;19.38;3.05;;;6.30;99.90;;;;;;4963221;28;20030;-83
2022/12/30 08:04:31;;;;;;;14.57;2.90;;;6.40;99.90;;;;;;4980217;28;20121;-82
2022/12/30 08:06:56;;;;;;;15.27;2.97;;;6.30;99.90;;;;;;4947673;28;20027;-83
2022/12/30 08:09:22;;;;;;;13.65;3.10;;;6.30;99.90;;;;;;4963754;28;20497;-83
2022/12/30 08:11:48;;;;;;;10.75;2.55;;;6.40;99.90;;;;;;4963860;28;20541;-83
2022/12/30 08:14:13;;;;;;;10.80;2.53;;;6.40;99.90;;;;;;4963503;28;20057;-84
2022/12/30 08:16:39;;;;;;;11.60;2.17;;;6.40;99.90;;;;;;4998524;28;20097;-82
2022/12/30 08:19:04;;;;;;;10.52;2.50;;;6.40;99.90;;;;;;4999442;28;20034;-83
2022/12/30 08:21:30;;;;;;;12.93;2.90;;;6.50;99.90;;;;;;4999166;28;20484;-83
2022/12/30 08:23:56;;;;;;;10.00;2.80;;;6.50;99.90;;;;;;4987756;28;20061;-83
2022/12/30 08:26:22;;;;;;;14.20;2.92;;;6.50;99.90;;;;;;4998886;28;21008;-83
2022/12/30 08:28:50;;;;;;;13.02;3.33;;;6.50;99.90;;;;;;4995775;28;20105;-84
2022/12/30 08:31:21;;;;;;;13.68;2.53;;;6.60;99.90;;;;;;4998969;28;20068;-83
2022/12/30 08:33:48;;;;;;;11.88;2.70;;;6.60;99.90;;;;;;5015892;28;20029;-83
2022/12/30 08:36:16;;;;;;;8.75;2.08;;;6.60;99.90;;;;;;4998637;28;20030;-83
2022/12/30 08:38:44;;;;;;;9.55;2.05;;;6.70;99.90;;;;;;4995753;28;20018;-85
2022/12/30 08:41:18;;;;;;;11.65;2.35;;;6.60;99.90;;;;;;4994487;28;20026;-85
2022/12/30 08:43:44;;;;;;;10.00;2.33;;;6.70;99.90;;;;;;4997933;28;20057;-83
2022/12/30 08:46:11;;;;;;;12.95;2.90;;;6.70;99.90;;;;;;4983225;28;20026;-82
2022/12/30 08:48:36;;;;;;;10.15;2.10;;;6.70;99.90;;;;;;4997241;28;20042;-83
2022/12/30 08:51:03;;;;;;;12.75;2.00;;;6.80;99.90;;;;;;4998294;28;20042;-83
2022/12/30 08:53:28;;;;;;;9.90;2.47;;;6.80;99.90;;;;;;5016295;28;20022;-83
2022/12/30 08:56:04;;;;;;;9.48;2.75;;;6.80;99.90;;;;;;5000568;28;20455;-83
2022/12/30 08:58:30;;;;;;;7.63;1.90;;;6.90;99.90;;;;;;5000395;28;20025;-82
2022/12/30 09:00:56;;;;;;;9.20;1.70;;;6.90;99.90;;;;;;5015794;28;20022;-85
2022/12/30 09:03:22;;;;;;;10.02;2.10;;;6.90;99.90;;;;;;4998242;28;20033;-83
2022/12/30 09:05:55;;;;;;;11.90;1.90;;;7.00;99.90;;;;;;5011854;28;20090;-85
2022/12/30 09:08:21;;;;;;;6.55;1.70;;;7.00;99.90;;;;;;5003369;28;20038;-85
2022/12/30 09:11:05;;;;;;;8.00;1.70;;;7.10;99.90;;;;;;5034833;28;20029;-83
2022/12/30 09:13:31;;;;;;;9.85;2.42;;;7.10;99.90;;;;;;5033458;28;20097;-84
2022/12/30 09:15:58;;;;;;;8.55;1.70;;;7.20;99.90;;;;;;5019071;28;20041;-83
2022/12/30 09:18:24;;;;;;;7.35;1.70;;;7.20;99.90;;;;;;5033182;28;20046;-83
2022/12/30 09:20:50;;;;;;;10.20;1.60;;;7.20;99.90;;;;;;5020568;28;20018;-88
2022/12/30 09:23:16;;;;;;;6.85;1.65;;;7.30;99.90;;;;;;5015763;28;20037;-84
2022/12/30 09:25:41;;;;;;;9.85;2.28;;;7.30;99.90;;;;;;5014778;28;20041;-84
2022/12/30 09:28:07;;;;;;;7.53;2.00;;;7.40;99.90;;;;;;4982762;28;20130;-84
2022/12/30 09:30:32;;;;;;;15.57;2.95;;;7.40;99.90;;;;;;4992997;28;20120;-83
2022/12/30 09:32:58;;;;;;;10.65;2.47;;;7.40;99.90;;;;;;4979268;28;20486;-83
2022/12/30 09:35:27;;;;;;;10.07;1.80;;;7.50;99.90;;;;;;4981440;28;20026;-84
2022/12/30 09:37:52;;;;;;;11.15;3.50;;;7.50;99.90;;;;;;4997749;28;20125;-84
2022/12/30 09:40:27;;;;;;;12.27;1.92;;;7.50;99.90;;;;;;4997936;28;20026;-83
2022/12/30 09:46:05;;;;;;;8.00;1.85;;;7.40;99.90;;;;;;5000179;28;20052;-84
2022/12/30 09:48:40;;;;;;;11.52;2.05;;;7.50;99.90;;;;;;4997186;28;20373;-84
2022/12/30 09:51:15;;;;;;;9.20;2.05;;;7.50;99.90;;;;;;5013692;28;20063;-84
2022/12/30 09:53:48;;;;;;;9.40;1.60;;;7.50;99.90;;;;;;5013319;28;20120;-84
2022/12/30 09:56:23;;;;;;;6.35;1.60;;;7.50;99.90;;;;;;5013606;28;20528;-83
2022/12/30 09:58:49;;;;;;;12.20;1.85;;;7.50;99.90;;;;;;5014750;28;20025;-83
2022/12/30 10:01:33;;;;;;;8.80;1.58;;;7.50;99.90;;;;;;4997410;28;20030;-84
2022/12/30 10:04:00;;;;;;;7.18;1.60;;;7.50;99.90;;;;;;5013406;28;20037;-84
2022/12/30 10:07:08;;;;;;;8.68;1.35;;;7.60;99.90;;;;;;4970312;28;20121;-84
2022/12/30 10:09:58;;;;;;;8.73;1.80;;;7.60;99.90;;;;;;4935357;28;20444;-84
2022/12/30 10:12:45;;;;;;;7.17;1.30;;;7.60;99.90;;;;;;4971723;28;20014;-84
2022/12/30 10:15:22;;;;;;;6.32;1.70;;;7.60;99.90;;;;;;4995692;28;20030;-85
2022/12/30 10:18:06;;;;;;;8.30;1.70;;;7.70;99.90;;;;;;4983538;28;20026;-84
2022/12/30 10:21:09;;;;;;;9.43;1.98;;;7.70;99.90;;;;;;5017548;28;20030;-85
2022/12/30 10:23:58;;;;;;;5.32;1.38;;;7.70;99.90;;;;;;5001267;28;20065;-83
2022/12/30 10:26:35;;;;;;;5.90;1.25;;;7.80;99.90;;;;;;4978145;28;20038;-84
2022/12/30 10:29:08;;;;;;;8.10;1.58;;;7.80;99.90;;;;;;4977870;28;20041;-84
2022/12/30 10:31:36;;;;;;;5.05;1.33;;;7.90;99.90;;;;;;4994634;28;20073;-83
2022/12/30 10:34:14;;;;;;;5.65;1.40;;;7.90;99.90;;;;;;4976854;28;20037;-85
2022/12/30 10:36:48;;;;;;;9.50;1.88;;;8.00;99.90;;;;;;4994642;28;20067;-84
2022/12/30 10:39:24;;;;;;;5.25;1.70;;;8.00;99.90;;;;;;4969905;28;20445;-84
2022/12/30 10:42:27;;;;;;;8.35;1.70;;;8.00;99.90;;;;;;4977422;28;20030;-84
2022/12/30 10:44:54;;;;;;;8.70;1.65;;;8.00;99.90;;;;;;4994511;28;20030;-84
2022/12/30 10:47:19;;;;;;;7.82;1.85;;;8.00;99.90;;;;;;4994953;28;20065;-83
2022/12/30 10:49:45;;;;;;;6.70;1.50;;;8.00;99.90;;;;;;4977029;28;20066;-84
2022/12/30 10:52:13;;;;;;;7.25;1.60;;;8.00;99.90;;;;;;4969131;28;20022;-84
2022/12/30 10:54:38;;;;;;;7.10;1.73;;;8.10;99.90;;;;;;4962211;28;20069;-83
2022/12/30 10:57:09;;;;;;;7.25;1.73;;;8.00;99.90;;;;;;4982843;28;20026;-81
2022/12/30 10:59:35;;;;;;;8.43;1.98;;;8.10;99.90;;;;;;4983209;28;20026;-82
2022/12/30 11:02:24;;;;;;;9.60;1.73;;;8.00;99.90;;;;;;4983461;28;20038;-83
2022/12/30 11:04:50;;;;;;;7.82;2.08;;;8.00;99.90;;;;;;4983423;28;20467;-83
2022/12/30 11:07:16;;;;;;;8.82;1.75;;;8.10;99.90;;;;;;4966993;28;20038;-82
2022/12/30 11:09:44;;;;;;;7.35;1.50;;;8.10;99.90;;;;;;5001014;28;20031;-82
2022/12/30 11:15:09;;;;;;;5.85;1.50;;;8.10;99.90;;;;;;5000593;28;20144;-87
2022/12/30 11:17:48;;;;;;;7.82;1.67;;;8.10;99.90;;;;;;4983523;28;20040;-82
2022/12/30 11:20:13;;;;;;;7.18;1.40;;;8.20;99.90;;;;;;4981845;28;20029;-82
2022/12/30 11:22:51;;;;;;;7.70;1.90;;;8.20;99.90;;;;;;4977093;28;20030;-82
2022/12/30 11:25:21;;;;;;;9.63;1.80;;;8.30;99.90;;;;;;4976784;28;20038;-83
2022/12/30 11:27:51;;;;;;;5.60;1.45;;;8.20;99.90;;;;;;4976957;28;20049;-82
2022/12/30 11:30:49;;;;;;;12.38;2.15;;;8.30;99.90;;;;;;4976552;28;20026;-82
2022/12/30 11:33:19;;;;;;;7.22;1.52;;;8.30;99.90;;;;;;4970893;28;20065;-83
2022/12/30 11:35:49;;;;;;;10.57;2.00;;;8.30;99.90;;;;;;4976867;28;20022;-82
2022/12/30 11:38:35;;;;;;;7.82;2.20;;;8.40;99.90;;;;;;4969786;28;20065;-83
2022/12/30 11:41:16;;;;;;;6.72;1.80;;;8.40;99.90;;;;;;4994389;28;20018;-83
2022/12/30 11:44:01;;;;;;;;;;;8.40;99.90;;;;;;4994434;28;20034;-83
2022/12/30 11:46:40;;;;;;;4.75;1.92;;;8.50;99.90;;;;;;4976038;28;19909;-83
2022/12/30 11:49:39;;;;;;;6.60;1.52;;;8.50;99.90;;;;;;4976687;28;20398;-82
2022/12/30 11:52:31;;;;;;;7.97;1.50;;;8.40;99.90;;;;;;4986218;28;20045;-83
2022/12/30 11:55:00;;;;;;;6.63;1.92;;;8.50;99.90;;;;;;4993594;28;20038;-82
2022/12/30 11:57:30;;;;;;;7.63;1.67;;;8.50;99.90;;;;;;4997434;28;20022;-83
2022/12/30 12:00:34;;;;;;;11.40;2.80;;;8.50;99.90;;;;;;4980401;28;20077;-82
2022/12/30 12:03:08;;;;;;;9.50;2.50;;;8.50;99.90;;;;;;4981786;28;20463;-83
2022/12/30 12:05:42;;;;;;;6.93;1.60;;;8.50;99.90;;;;;;4982463;28;20195;-83
2022/12/30 12:08:17;;;;;;;6.03;1.75;;;8.50;99.90;;;;;;4983157;28;20414;-84
2022/12/30 12:10:49;;;;;;;8.35;1.95;;;8.60;99.90;;;;;;4980301;28;20474;-83
2022/12/30 12:13:30;;;;;;;5.20;2.35;;;8.60;99.90;;;;;;4979149;28;20170;-82
2022/12/30 12:15:59;;;;;;;6.97;1.75;;;8.60;99.90;;;;;;4980671;28;20383;-86
2022/12/30 12:18:40;;;;;;;8.90;1.98;;;8.60;99.90;;;;;;4979454;28;20113;-82
2022/12/30 12:21:28;;;;;;;5.28;1.98;;;8.60;99.90;;;;;;4997097;28;20038;-82
2022/12/30 12:23:56;;;;;;;9.07;2.10;;;8.70;99.90;;;;;;4997486;28;20046;-83
2022/12/30 12:26:31;;;;;;;9.05;2.22;;;8.70;99.90;;;;;;4979930;28;20030;-82
2022/12/30 12:28:58;;;;;;;11.25;2.15;;;8.70;99.90;;;;;;4979758;28;20051;-83
2022/12/30 12:31:34;;;;;;;5.65;1.95;;;8.70;99.90;;;;;;4963020;28;20031;-82
2022/12/30 12:34:21;;;;;;;9.02;1.40;;;8.70;99.90;;;;;;4979435;28;20036;-82
2022/12/30 12:37:12;;;;;;;8.45;1.67;;;8.80;99.90;;;;;;4979588;28;20372;-82
2022/12/30 12:40:14;;;;;;;8.65;1.60;;;8.80;99.90;;;;;;4980016;28;20475;-82
2022/12/30 12:42:46;;;;;;;5.20;1.40;;;8.80;99.90;;;;;;4977477;28;20030;-82
2022/12/30 12:45:49;;;;;;;5.47;1.30;;;8.90;99.90;;;;;;5001577;28;20026;-81
2022/12/30 12:48:54;;;;;;;7.43;2.20;;;8.90;99.90;;;;;;5001648;28;20026;-89
2022/12/30 12:51:47;;;;;;;4.97;1.55;;;8.90;99.90;;;;;;5009513;28;20066;-83
2022/12/30 12:54:38;;;;;;;9.07;1.73;;;8.90;99.90;;;;;;5019200;28;20011;-83
2022/12/30 12:57:08;;;;;;;8.45;1.73;;;8.90;99.90;;;;;;5000194;28;20022;-83
2022/12/30 12:59:48;;;;;;;7.40;1.92;;;9.00;99.90;;;;;;4990946;28;20059;-83
2022/12/30 13:02:44;;;;;;;7.07;2.38;;;8.90;99.90;;;;;;4987480;28;20018;-83
2022/12/30 13:05:31;;;;;;;6.88;1.50;;;8.90;99.90;;;;;;4997348;28;20050;-83
2022/12/30 13:08:13;;;;;;;11.20;1.85;;;8.90;99.90;;;;;;4980511;28;20029;-83
2022/12/30 13:10:47;;;;;;;8.05;1.70;;;8.90;99.90;;;;;;4996922;28;20080;-82
2022/12/30 13:13:29;;;;;;;4.85;1.30;;;8.90;99.90;;;;;;4978868;28;20046;-82
2022/12/30 13:16:20;;;;;;;7.47;2.28;;;8.90;99.90;;;;;;4996166;28;20027;-82
2022/12/30 13:18:49;;;;;;;6.97;1.80;;;8.90;99.90;;;;;;4971535;28;20438;-82
2022/12/30 13:21:25;;;;;;;5.93;2.08;;;8.90;99.90;;;;;;4978712;28;20277;-83
2022/12/30 13:23:57;;;;;;;7.07;1.38;;;8.90;99.90;;;;;;4978570;28;20109;-83
2022/12/30 13:26:25;;;;;;;8.35;2.25;;;8.80;99.90;;;;;;4978399;28;20045;-84
2022/12/30 13:28:54;;;;;;;5.35;1.50;;;8.80;99.90;;;;;;4978370;28;20501;-83
2022/12/30 13:31:38;;;;;;;7.80;1.45;;;8.80;99.90;;;;;;4977985;28;20069;-84
2022/12/30 13:34:15;;;;;;;8.82;2.47;;;8.80;99.90;;;;;;4977803;28;20034;-82
2022/12/30 13:36:49;;;;;;;8.43;1.80;;;8.80;99.90;;;;;;4995330;28;20027;-82
2022/12/30 13:39:24;;;;;;;10.80;2.17;;;8.80;99.90;;;;;;4987750;28;20478;-82
2022/12/30 13:42:26;;;;;;;7.53;1.70;;;8.80;99.90;;;;;;4977718;28;20031;-82
2022/12/30 13:44:54;;;;;;;9.38;1.60;;;8.80;99.90;;;;;;4977542;28;20030;-83
2022/12/30 13:47:43;;;;;;;8.15;1.67;;;8.80;99.90;;;;;;4977563;28;20030;-82
2022/12/30 13:50:30;;;;;;;9.73;2.20;;;8.80;99.90;;;;;;4978028;28;20023;-83
2022/12/30 13:52:58;;;;;;;11.95;2.65;;;8.70;99.90;;;;;;4977018;28;20030;-81
2022/12/30 13:55:50;;;;;;;8.00;1.80;;;8.70;99.90;;;;;;4977278;28;20037;-84
2022/12/30 13:58:30;;;;;;;9.18;1.55;;;8.70;99.90;;;;;;4977339;28;20022;-82
2022/12/30 14:01:18;;;;;;;5.25;2.45;;;8.70;99.90;;;;;;4977286;28;20489;-81
2022/12/30 14:04:04;;;;;;;9.93;2.33;;;8.70;99.90;;;;;;4994792;28;20113;-82
2022/12/30 14:06:51;;;;;;;4.88;1.60;;;8.70;99.90;;;;;;4983948;28;20038;-82
2022/12/30 14:09:25;;;;;;;10.35;2.28;;;8.70;99.90;;;;;;4995033;28;20080;-82
2022/12/30 14:12:06;;;;;;;8.02;2.22;;;8.70;99.90;;;;;;4999738;28;20463;-83